sensor_id;sensor_type;location;lat;lon;timestamp;P1;durP1;ratioP1;P2;durP2;ratioP2
56339;SDS011;42243;42.644;23.366;2023-06-10T00:00:43;10.80;;;6.25;;
56339;SDS011;42243;42.644;23.366;2023-06-10T00:03:11;7.80;;;6.15;;
56339;SDS011;42243;42.644;23.366;2023-06-10T00:05:37;9.90;;;6.93;;
56339;SDS011;42243;42.644;23.366;2023-06-10T00:08:04;9.15;;;6.65;;
56339;SDS011;42243;42.644;23.366;2023-06-10T00:10:35;9.52;;;7.43;;
56339;SDS011;42243;42.644;23.366;2023-06-10T00:13:01;12.05;;;6.90;;
56339;SDS011;42243;42.644;23.366;2023-06-10T00:15:28;14.05;;;6.93;;
56339;SDS011;42243;42.644;23.366;2023-06-10T00:17:54;9.60;;;6.95;;
56339;SDS011;42243;42.644;23.366;2023-06-10T00:20:20;14.38;;;7.35;;
56339;SDS011;42243;42.644;23.366;2023-06-10T00:22:47;13.27;;;7.25;;
56339;SDS011;42243;42.644;23.366;2023-06-10T00:25:14;7.53;;;6.80;;
56339;SDS011;42243;42.644;23.366;2023-06-10T00:27:39;8.18;;;6.40;;
56339;SDS011;42243;42.644;23.366;2023-06-10T00:30:05;8.27;;;6.80;;
56339;SDS011;42243;42.644;23.366;2023-06-10T00:32:35;10.65;;;6.53;;
56339;SDS011;42243;42.644;23.366;2023-06-10T00:35:01;8.45;;;6.82;;
56339;SDS011;42243;42.644;23.366;2023-06-10T00:37:27;8.65;;;6.45;;
56339;SDS011;42243;42.644;23.366;2023-06-10T00:39:53;11.27;;;6.25;;
56339;SDS011;42243;42.644;23.366;2023-06-10T00:42:20;7.43;;;6.25;;
56339;SDS011;42243;42.644;23.366;2023-06-10T00:44:47;10.68;;;6.85;;
56339;SDS011;42243;42.644;23.366;2023-06-10T00:47:12;14.70;;;6.45;;
56339;SDS011;42243;42.644;23.366;2023-06-10T00:49:38;11.73;;;6.68;;
56339;SDS011;42243;42.644;23.366;2023-06-10T00:52:04;12.30;;;7.05;;
56339;SDS011;42243;42.644;23.366;2023-06-10T00:54:31;8.57;;;6.93;;
56339;SDS011;42243;42.644;23.366;2023-06-10T00:56:59;10.30;;;7.35;;
56339;SDS011;42243;42.644;23.366;2023-06-10T00:59:26;11.13;;;8.55;;
56339;SDS011;42243;42.644;23.366;2023-06-10T01:01:53;8.80;;;7.95;;
56339;SDS011;42243;42.644;23.366;2023-06-10T01:04:19;9.60;;;8.57;;
56339;SDS011;42243;42.644;23.366;2023-06-10T01:06:52;11.52;;;8.52;;
56339;SDS011;42243;42.644;23.366;2023-06-10T01:09:45;9.05;;;7.88;;
56339;SDS011;42243;42.644;23.366;2023-06-10T01:12:32;11.15;;;8.60;;
56339;SDS011;42243;42.644;23.366;2023-06-10T01:15:04;11.82;;;8.43;;
56339;SDS011;42243;42.644;23.366;2023-06-10T01:17:30;9.93;;;8.90;;
56339;SDS011;42243;42.644;23.366;2023-06-10T01:19:57;9.30;;;8.43;;
56339;SDS011;42243;42.644;23.366;2023-06-10T01:22:26;16.02;;;8.77;;
56339;SDS011;42243;42.644;23.366;2023-06-10T01:24:57;13.32;;;7.95;;
56339;SDS011;42243;42.644;23.366;2023-06-10T01:27:24;11.27;;;8.18;;
56339;SDS011;42243;42.644;23.366;2023-06-10T01:29:58;11.23;;;8.57;;
56339;SDS011;42243;42.644;23.366;2023-06-10T01:32:37;12.50;;;8.98;;
56339;SDS011;42243;42.644;23.366;2023-06-10T01:35:15;11.60;;;8.93;;
56339;SDS011;42243;42.644;23.366;2023-06-10T01:37:43;10.02;;;8.82;;
56339;SDS011;42243;42.644;23.366;2023-06-10T01:40:11;9.13;;;8.20;;
56339;SDS011;42243;42.644;23.366;2023-06-10T01:42:37;14.55;;;9.02;;
56339;SDS011;42243;42.644;23.366;2023-06-10T01:45:03;13.23;;;8.13;;
56339;SDS011;42243;42.644;23.366;2023-06-10T01:47:29;10.82;;;8.70;;
56339;SDS011;42243;42.644;23.366;2023-06-10T01:49:55;13.02;;;8.75;;
56339;SDS011;42243;42.644;23.366;2023-06-10T01:52:20;9.98;;;8.48;;
56339;SDS011;42243;42.644;23.366;2023-06-10T01:54:46;11.15;;;8.60;;
56339;SDS011;42243;42.644;23.366;2023-06-10T01:57:11;9.70;;;8.40;;
56339;SDS011;42243;42.644;23.366;2023-06-10T01:59:36;9.07;;;7.90;;
56339;SDS011;42243;42.644;23.366;2023-06-10T02:02:03;12.57;;;8.75;;
56339;SDS011;42243;42.644;23.366;2023-06-10T02:04:29;11.77;;;8.35;;
56339;SDS011;42243;42.644;23.366;2023-06-10T02:06:55;10.00;;;8.27;;
56339;SDS011;42243;42.644;23.366;2023-06-10T02:09:21;15.27;;;8.52;;
56339;SDS011;42243;42.644;23.366;2023-06-10T02:11:47;11.52;;;7.90;;
56339;SDS011;42243;42.644;23.366;2023-06-10T02:14:13;11.55;;;8.32;;
56339;SDS011;42243;42.644;23.366;2023-06-10T02:16:39;9.35;;;7.60;;
56339;SDS011;42243;42.644;23.366;2023-06-10T02:19:04;13.02;;;7.85;;
56339;SDS011;42243;42.644;23.366;2023-06-10T02:21:31;14.55;;;7.70;;
56339;SDS011;42243;42.644;23.366;2023-06-10T02:23:57;10.38;;;7.80;;
56339;SDS011;42243;42.644;23.366;2023-06-10T02:26:23;9.88;;;7.93;;
56339;SDS011;42243;42.644;23.366;2023-06-10T02:28:50;8.90;;;7.35;;
56339;SDS011;42243;42.644;23.366;2023-06-10T02:31:16;10.52;;;6.80;;
56339;SDS011;42243;42.644;23.366;2023-06-10T02:33:43;9.55;;;7.10;;
56339;SDS011;42243;42.644;23.366;2023-06-10T02:36:09;10.15;;;6.05;;
56339;SDS011;42243;42.644;23.366;2023-06-10T02:38:38;6.75;;;6.05;;
56339;SDS011;42243;42.644;23.366;2023-06-10T02:41:05;8.27;;;5.60;;
56339;SDS011;42243;42.644;23.366;2023-06-10T02:43:31;6.38;;;5.63;;
56339;SDS011;42243;42.644;23.366;2023-06-10T02:45:56;7.93;;;5.25;;
56339;SDS011;42243;42.644;23.366;2023-06-10T02:48:23;7.38;;;5.30;;
56339;SDS011;42243;42.644;23.366;2023-06-10T02:50:48;8.15;;;5.60;;
56339;SDS011;42243;42.644;23.366;2023-06-10T02:53:14;7.50;;;5.57;;
56339;SDS011;42243;42.644;23.366;2023-06-10T02:55:39;8.52;;;6.15;;
56339;SDS011;42243;42.644;23.366;2023-06-10T02:58:05;10.80;;;6.75;;
56339;SDS011;42243;42.644;23.366;2023-06-10T03:00:32;10.32;;;7.10;;
56339;SDS011;42243;42.644;23.366;2023-06-10T03:02:58;7.93;;;6.93;;
56339;SDS011;42243;42.644;23.366;2023-06-10T03:05:27;8.93;;;7.00;;
56339;SDS011;42243;42.644;23.366;2023-06-10T03:07:53;8.88;;;6.30;;
56339;SDS011;42243;42.644;23.366;2023-06-10T03:10:18;10.88;;;7.68;;
56339;SDS011;42243;42.644;23.366;2023-06-10T03:12:44;8.35;;;6.93;;
56339;SDS011;42243;42.644;23.366;2023-06-10T03:15:09;12.27;;;7.55;;
56339;SDS011;42243;42.644;23.366;2023-06-10T03:17:35;9.38;;;7.28;;
56339;SDS011;42243;42.644;23.366;2023-06-10T03:20:00;12.63;;;8.25;;
56339;SDS011;42243;42.644;23.366;2023-06-10T03:22:26;10.73;;;7.60;;
56339;SDS011;42243;42.644;23.366;2023-06-10T03:24:51;12.70;;;8.23;;
56339;SDS011;42243;42.644;23.366;2023-06-10T03:27:18;10.68;;;8.95;;
56339;SDS011;42243;42.644;23.366;2023-06-10T03:29:44;9.50;;;8.02;;
56339;SDS011;42243;42.644;23.366;2023-06-10T03:32:09;11.10;;;8.35;;
56339;SDS011;42243;42.644;23.366;2023-06-10T03:34:35;10.20;;;7.40;;
56339;SDS011;42243;42.644;23.366;2023-06-10T03:37:00;9.95;;;8.18;;
56339;SDS011;42243;42.644;23.366;2023-06-10T03:39:26;9.75;;;8.52;;
56339;SDS011;42243;42.644;23.366;2023-06-10T03:41:54;13.75;;;8.82;;
56339;SDS011;42243;42.644;23.366;2023-06-10T03:44:20;18.15;;;10.88;;
56339;SDS011;42243;42.644;23.366;2023-06-10T03:46:45;19.13;;;12.38;;
56339;SDS011;42243;42.644;23.366;2023-06-10T03:49:12;12.35;;;9.75;;
56339;SDS011;42243;42.644;23.366;2023-06-10T03:51:38;11.88;;;8.85;;
56339;SDS011;42243;42.644;23.366;2023-06-10T03:54:03;11.63;;;8.90;;
56339;SDS011;42243;42.644;23.366;2023-06-10T03:56:28;12.10;;;8.68;;
56339;SDS011;42243;42.644;23.366;2023-06-10T03:58:54;12.25;;;8.50;;
56339;SDS011;42243;42.644;23.366;2023-06-10T04:01:20;10.02;;;7.90;;
56339;SDS011;42243;42.644;23.366;2023-06-10T04:03:46;11.38;;;8.45;;
56339;SDS011;42243;42.644;23.366;2023-06-10T04:06:14;12.82;;;8.63;;
56339;SDS011;42243;42.644;23.366;2023-06-10T04:08:39;14.77;;;8.23;;
56339;SDS011;42243;42.644;23.366;2023-06-10T04:11:05;12.18;;;8.38;;
56339;SDS011;42243;42.644;23.366;2023-06-10T04:13:31;11.05;;;8.55;;
56339;SDS011;42243;42.644;23.366;2023-06-10T04:15:56;10.65;;;9.15;;
56339;SDS011;42243;42.644;23.366;2023-06-10T04:18:22;13.75;;;9.30;;
56339;SDS011;42243;42.644;23.366;2023-06-10T04:20:47;12.80;;;9.60;;
56339;SDS011;42243;42.644;23.366;2023-06-10T04:23:13;11.75;;;9.68;;
56339;SDS011;42243;42.644;23.366;2023-06-10T04:25:38;15.32;;;10.32;;
56339;SDS011;42243;42.644;23.366;2023-06-10T04:28:03;15.38;;;9.68;;
56339;SDS011;42243;42.644;23.366;2023-06-10T04:30:29;13.70;;;10.18;;
56339;SDS011;42243;42.644;23.366;2023-06-10T04:32:56;11.25;;;10.13;;
56339;SDS011;42243;42.644;23.366;2023-06-10T04:35:21;11.80;;;10.57;;
56339;SDS011;42243;42.644;23.366;2023-06-10T04:37:47;14.13;;;9.93;;
56339;SDS011;42243;42.644;23.366;2023-06-10T04:40:12;11.30;;;10.10;;
56339;SDS011;42243;42.644;23.366;2023-06-10T04:42:38;10.55;;;9.45;;
56339;SDS011;42243;42.644;23.366;2023-06-10T04:45:04;14.75;;;9.73;;
56339;SDS011;42243;42.644;23.366;2023-06-10T04:47:30;11.55;;;9.13;;
56339;SDS011;42243;42.644;23.366;2023-06-10T04:49:58;10.90;;;8.73;;
56339;SDS011;42243;42.644;23.366;2023-06-10T04:52:28;10.93;;;9.10;;
56339;SDS011;42243;42.644;23.366;2023-06-10T04:54:53;11.40;;;8.45;;
56339;SDS011;42243;42.644;23.366;2023-06-10T04:57:20;12.27;;;8.68;;
56339;SDS011;42243;42.644;23.366;2023-06-10T04:59:46;10.15;;;8.05;;
56339;SDS011;42243;42.644;23.366;2023-06-10T05:02:12;11.32;;;7.78;;
56339;SDS011;42243;42.644;23.366;2023-06-10T05:04:37;11.70;;;8.82;;
56339;SDS011;42243;42.644;23.366;2023-06-10T05:07:03;9.93;;;8.23;;
56339;SDS011;42243;42.644;23.366;2023-06-10T05:09:28;12.40;;;8.82;;
56339;SDS011;42243;42.644;23.366;2023-06-10T05:11:54;13.80;;;8.70;;
56339;SDS011;42243;42.644;23.366;2023-06-10T05:14:19;10.93;;;8.30;;
56339;SDS011;42243;42.644;23.366;2023-06-10T05:16:46;9.52;;;8.60;;
56339;SDS011;42243;42.644;23.366;2023-06-10T05:19:11;9.18;;;7.85;;
56339;SDS011;42243;42.644;23.366;2023-06-10T05:21:37;13.13;;;8.50;;
56339;SDS011;42243;42.644;23.366;2023-06-10T05:24:02;14.10;;;8.15;;
56339;SDS011;42243;42.644;23.366;2023-06-10T05:26:28;14.10;;;8.77;;
56339;SDS011;42243;42.644;23.366;2023-06-10T05:28:56;9.55;;;8.23;;
56339;SDS011;42243;42.644;23.366;2023-06-10T05:31:22;12.70;;;8.48;;
56339;SDS011;42243;42.644;23.366;2023-06-10T05:33:47;11.10;;;8.52;;
56339;SDS011;42243;42.644;23.366;2023-06-10T05:36:12;12.43;;;9.05;;
56339;SDS011;42243;42.644;23.366;2023-06-10T05:38:38;11.40;;;8.60;;
56339;SDS011;42243;42.644;23.366;2023-06-10T05:41:03;9.70;;;8.73;;
56339;SDS011;42243;42.644;23.366;2023-06-10T05:43:29;11.85;;;9.05;;
56339;SDS011;42243;42.644;23.366;2023-06-10T05:45:54;13.65;;;8.73;;
56339;SDS011;42243;42.644;23.366;2023-06-10T05:48:19;10.60;;;8.90;;
56339;SDS011;42243;42.644;23.366;2023-06-10T05:50:45;11.98;;;9.18;;
56339;SDS011;42243;42.644;23.366;2023-06-10T05:53:13;9.77;;;8.82;;
56339;SDS011;42243;42.644;23.366;2023-06-10T05:55:43;11.38;;;8.88;;
56339;SDS011;42243;42.644;23.366;2023-06-10T05:58:09;11.18;;;10.05;;
56339;SDS011;42243;42.644;23.366;2023-06-10T06:00:37;14.15;;;11.20;;
56339;SDS011;42243;42.644;23.366;2023-06-10T06:03:07;15.85;;;11.73;;
56339;SDS011;42243;42.644;23.366;2023-06-10T06:05:38;15.82;;;11.57;;
56339;SDS011;42243;42.644;23.366;2023-06-10T06:08:04;14.13;;;11.55;;
56339;SDS011;42243;42.644;23.366;2023-06-10T06:10:30;12.80;;;10.60;;
56339;SDS011;42243;42.644;23.366;2023-06-10T06:12:55;13.90;;;10.43;;
56339;SDS011;42243;42.644;23.366;2023-06-10T06:15:21;14.52;;;10.40;;
56339;SDS011;42243;42.644;23.366;2023-06-10T06:17:46;15.35;;;9.98;;
56339;SDS011;42243;42.644;23.366;2023-06-10T06:20:12;15.00;;;10.50;;
56339;SDS011;42243;42.644;23.366;2023-06-10T06:22:37;12.43;;;10.63;;
56339;SDS011;42243;42.644;23.366;2023-06-10T06:25:03;14.77;;;10.90;;
56339;SDS011;42243;42.644;23.366;2023-06-10T06:27:29;14.38;;;11.20;;
56339;SDS011;42243;42.644;23.366;2023-06-10T06:29:54;14.55;;;10.90;;
56339;SDS011;42243;42.644;23.366;2023-06-10T06:32:19;12.65;;;11.35;;
56339;SDS011;42243;42.644;23.366;2023-06-10T06:34:47;13.52;;;11.32;;
56339;SDS011;42243;42.644;23.366;2023-06-10T06:37:14;14.07;;;10.82;;
56339;SDS011;42243;42.644;23.366;2023-06-10T06:39:40;13.45;;;11.13;;
56339;SDS011;42243;42.644;23.366;2023-06-10T06:42:05;15.68;;;11.45;;
56339;SDS011;42243;42.644;23.366;2023-06-10T06:44:31;15.77;;;11.50;;
56339;SDS011;42243;42.644;23.366;2023-06-10T06:46:57;13.68;;;10.50;;
56339;SDS011;42243;42.644;23.366;2023-06-10T06:49:22;14.88;;;10.50;;
56339;SDS011;42243;42.644;23.366;2023-06-10T06:51:47;10.48;;;9.07;;
56339;SDS011;42243;42.644;23.366;2023-06-10T06:54:13;15.95;;;9.82;;
56339;SDS011;42243;42.644;23.366;2023-06-10T06:56:38;13.57;;;7.80;;
56339;SDS011;42243;42.644;23.366;2023-06-10T06:59:03;18.20;;;9.18;;
56339;SDS011;42243;42.644;23.366;2023-06-10T07:01:30;11.45;;;8.55;;
56339;SDS011;42243;42.644;23.366;2023-06-10T07:03:58;22.25;;;8.30;;
56339;SDS011;42243;42.644;23.366;2023-06-10T07:06:23;12.38;;;8.43;;
56339;SDS011;42243;42.644;23.366;2023-06-10T07:08:50;15.18;;;8.40;;
56339;SDS011;42243;42.644;23.366;2023-06-10T07:11:16;15.05;;;8.20;;
56339;SDS011;42243;42.644;23.366;2023-06-10T07:13:42;21.55;;;7.93;;
56339;SDS011;42243;42.644;23.366;2023-06-10T07:16:08;14.95;;;7.53;;
56339;SDS011;42243;42.644;23.366;2023-06-10T07:18:33;24.08;;;7.32;;
56339;SDS011;42243;42.644;23.366;2023-06-10T07:20:58;13.77;;;6.53;;
56339;SDS011;42243;42.644;23.366;2023-06-10T07:23:24;15.63;;;6.22;;
56339;SDS011;42243;42.644;23.366;2023-06-10T07:25:49;10.60;;;6.13;;
56339;SDS011;42243;42.644;23.366;2023-06-10T07:28:15;10.88;;;6.18;;
56339;SDS011;42243;42.644;23.366;2023-06-10T07:30:40;16.85;;;5.88;;
56339;SDS011;42243;42.644;23.366;2023-06-10T07:33:06;15.75;;;5.47;;
56339;SDS011;42243;42.644;23.366;2023-06-10T07:35:32;15.77;;;5.55;;
56339;SDS011;42243;42.644;23.366;2023-06-10T07:37:58;16.27;;;5.43;;
56339;SDS011;42243;42.644;23.366;2023-06-10T07:40:23;14.57;;;5.25;;
56339;SDS011;42243;42.644;23.366;2023-06-10T07:42:49;14.10;;;5.55;;
56339;SDS011;42243;42.644;23.366;2023-06-10T07:45:14;18.40;;;4.90;;
56339;SDS011;42243;42.644;23.366;2023-06-10T07:47:40;19.77;;;5.50;;
56339;SDS011;42243;42.644;23.366;2023-06-10T07:50:05;17.20;;;4.72;;
56339;SDS011;42243;42.644;23.366;2023-06-10T07:52:31;13.05;;;5.15;;
56339;SDS011;42243;42.644;23.366;2023-06-10T07:54:56;14.52;;;4.72;;
56339;SDS011;42243;42.644;23.366;2023-06-10T07:57:22;9.43;;;4.53;;
56339;SDS011;42243;42.644;23.366;2023-06-10T07:59:47;12.45;;;5.00;;
56339;SDS011;42243;42.644;23.366;2023-06-10T08:02:13;14.63;;;5.90;;
56339;SDS011;42243;42.644;23.366;2023-06-10T08:04:39;9.98;;;5.07;;
56339;SDS011;42243;42.644;23.366;2023-06-10T08:07:06;12.52;;;4.65;;
56339;SDS011;42243;42.644;23.366;2023-06-10T08:09:31;15.80;;;4.85;;
56339;SDS011;42243;42.644;23.366;2023-06-10T08:11:56;11.70;;;4.38;;
56339;SDS011;42243;42.644;23.366;2023-06-10T08:14:22;6.32;;;4.70;;
56339;SDS011;42243;42.644;23.366;2023-06-10T08:16:47;7.22;;;4.90;;
56339;SDS011;42243;42.644;23.366;2023-06-10T08:19:13;6.57;;;4.60;;
56339;SDS011;42243;42.644;23.366;2023-06-10T08:21:38;18.98;;;5.68;;
56339;SDS011;42243;42.644;23.366;2023-06-10T08:24:05;15.25;;;5.22;;
56339;SDS011;42243;42.644;23.366;2023-06-10T08:26:31;25.83;;;5.35;;
56339;SDS011;42243;42.644;23.366;2023-06-10T08:28:57;11.98;;;4.85;;
56339;SDS011;42243;42.644;23.366;2023-06-10T08:31:22;16.60;;;4.53;;
56339;SDS011;42243;42.644;23.366;2023-06-10T08:33:48;21.45;;;4.07;;
56339;SDS011;42243;42.644;23.366;2023-06-10T08:36:13;6.47;;;2.90;;
56339;SDS011;42243;42.644;23.366;2023-06-10T08:38:39;8.45;;;2.83;;
56339;SDS011;42243;42.644;23.366;2023-06-10T08:41:05;15.18;;;3.63;;
56339;SDS011;42243;42.644;23.366;2023-06-10T08:43:37;8.60;;;3.88;;
56339;SDS011;42243;42.644;23.366;2023-06-10T08:46:08;7.00;;;3.65;;
56339;SDS011;42243;42.644;23.366;2023-06-10T08:48:35;6.13;;;3.60;;
56339;SDS011;42243;42.644;23.366;2023-06-10T08:51:06;3.85;;;3.42;;
56339;SDS011;42243;42.644;23.366;2023-06-10T08:53:34;7.40;;;3.80;;
56339;SDS011;42243;42.644;23.366;2023-06-10T08:56:03;5.93;;;3.78;;
56339;SDS011;42243;42.644;23.366;2023-06-10T08:58:30;6.22;;;3.40;;
56339;SDS011;42243;42.644;23.366;2023-06-10T09:00:58;7.95;;;3.47;;
56339;SDS011;42243;42.644;23.366;2023-06-10T09:03:24;8.00;;;3.60;;
56339;SDS011;42243;42.644;23.366;2023-06-10T09:05:50;7.47;;;3.40;;
56339;SDS011;42243;42.644;23.366;2023-06-10T09:08:16;14.52;;;3.65;;
56339;SDS011;42243;42.644;23.366;2023-06-10T09:10:42;7.22;;;3.42;;
56339;SDS011;42243;42.644;23.366;2023-06-10T09:13:07;4.97;;;3.50;;
56339;SDS011;42243;42.644;23.366;2023-06-10T09:15:33;4.22;;;3.22;;
56339;SDS011;42243;42.644;23.366;2023-06-10T09:17:59;7.68;;;3.30;;
56339;SDS011;42243;42.644;23.366;2023-06-10T09:20:25;4.75;;;3.20;;
56339;SDS011;42243;42.644;23.366;2023-06-10T09:22:50;5.85;;;3.13;;
56339;SDS011;42243;42.644;23.366;2023-06-10T09:25:16;5.70;;;2.90;;
56339;SDS011;42243;42.644;23.366;2023-06-10T09:27:45;13.65;;;3.20;;
56339;SDS011;42243;42.644;23.366;2023-06-10T09:30:35;8.52;;;2.88;;
56339;SDS011;42243;42.644;23.366;2023-06-10T09:33:01;5.07;;;2.72;;
56339;SDS011;42243;42.644;23.366;2023-06-10T09:35:29;3.15;;;2.60;;
56339;SDS011;42243;42.644;23.366;2023-06-10T09:37:58;9.57;;;3.03;;
56339;SDS011;42243;42.644;23.366;2023-06-10T09:40:25;6.60;;;2.80;;
56339;SDS011;42243;42.644;23.366;2023-06-10T09:42:54;6.63;;;2.90;;
56339;SDS011;42243;42.644;23.366;2023-06-10T09:45:32;13.10;;;3.00;;
56339;SDS011;42243;42.644;23.366;2023-06-10T09:47:57;4.47;;;2.60;;
56339;SDS011;42243;42.644;23.366;2023-06-10T09:50:23;5.70;;;2.58;;
56339;SDS011;42243;42.644;23.366;2023-06-10T09:52:49;5.28;;;2.50;;
56339;SDS011;42243;42.644;23.366;2023-06-10T09:55:15;4.32;;;2.67;;
56339;SDS011;42243;42.644;23.366;2023-06-10T09:57:42;4.00;;;2.75;;
56339;SDS011;42243;42.644;23.366;2023-06-10T10:00:09;7.15;;;2.90;;
56339;SDS011;42243;42.644;23.366;2023-06-10T10:02:46;5.25;;;2.75;;
56339;SDS011;42243;42.644;23.366;2023-06-10T10:05:14;5.22;;;2.85;;
56339;SDS011;42243;42.644;23.366;2023-06-10T10:07:40;3.83;;;2.90;;
56339;SDS011;42243;42.644;23.366;2023-06-10T10:10:06;3.83;;;3.03;;
56339;SDS011;42243;42.644;23.366;2023-06-10T10:12:34;4.18;;;2.78;;
56339;SDS011;42243;42.644;23.366;2023-06-10T10:15:00;4.90;;;3.00;;
56339;SDS011;42243;42.644;23.366;2023-06-10T10:17:27;7.80;;;3.60;;
56339;SDS011;42243;42.644;23.366;2023-06-10T10:19:57;5.70;;;3.78;;
56339;SDS011;42243;42.644;23.366;2023-06-10T10:22:29;5.50;;;2.80;;
56339;SDS011;42243;42.644;23.366;2023-06-10T10:25:01;5.85;;;3.40;;
56339;SDS011;42243;42.644;23.366;2023-06-10T10:27:30;8.95;;;3.22;;
56339;SDS011;42243;42.644;23.366;2023-06-10T10:30:00;8.65;;;3.45;;
56339;SDS011;42243;42.644;23.366;2023-06-10T10:32:32;8.45;;;3.47;;
56339;SDS011;42243;42.644;23.366;2023-06-10T10:35:07;9.10;;;4.00;;
56339;SDS011;42243;42.644;23.366;2023-06-10T10:37:35;3.70;;;3.30;;
56339;SDS011;42243;42.644;23.366;2023-06-10T10:40:01;12.32;;;3.40;;
56339;SDS011;42243;42.644;23.366;2023-06-10T10:42:28;6.90;;;3.65;;
56339;SDS011;42243;42.644;23.366;2023-06-10T10:44:54;4.53;;;3.17;;
56339;SDS011;42243;42.644;23.366;2023-06-10T10:47:21;3.53;;;2.72;;
56339;SDS011;42243;42.644;23.366;2023-06-10T10:49:48;3.25;;;2.90;;
56339;SDS011;42243;42.644;23.366;2023-06-10T10:52:19;7.35;;;2.80;;
56339;SDS011;42243;42.644;23.366;2023-06-10T10:54:46;3.38;;;2.85;;
56339;SDS011;42243;42.644;23.366;2023-06-10T10:57:18;8.30;;;3.00;;
56339;SDS011;42243;42.644;23.366;2023-06-10T11:05:19;4.47;;;3.05;;
56339;SDS011;42243;42.644;23.366;2023-06-10T11:07:57;5.88;;;3.20;;
56339;SDS011;42243;42.644;23.366;2023-06-10T11:10:55;4.05;;;2.95;;
56339;SDS011;42243;42.644;23.366;2023-06-10T11:13:20;4.40;;;2.95;;
56339;SDS011;42243;42.644;23.366;2023-06-10T11:15:50;10.32;;;3.20;;
56339;SDS011;42243;42.644;23.366;2023-06-10T11:21:03;6.00;;;3.65;;
56339;SDS011;42243;42.644;23.366;2023-06-10T11:28:40;5.05;;;2.88;;
56339;SDS011;42243;42.644;23.366;2023-06-10T11:31:07;6.65;;;3.67;;
56339;SDS011;42243;42.644;23.366;2023-06-10T11:33:32;9.95;;;3.08;;
56339;SDS011;42243;42.644;23.366;2023-06-10T11:35:58;5.47;;;3.22;;
56339;SDS011;42243;42.644;23.366;2023-06-10T11:38:24;11.32;;;5.13;;
56339;SDS011;42243;42.644;23.366;2023-06-10T11:40:50;9.15;;;4.10;;
56339;SDS011;42243;42.644;23.366;2023-06-10T11:43:19;6.38;;;3.10;;
56339;SDS011;42243;42.644;23.366;2023-06-10T11:45:45;4.82;;;2.88;;
56339;SDS011;42243;42.644;23.366;2023-06-10T11:48:12;5.90;;;4.00;;
56339;SDS011;42243;42.644;23.366;2023-06-10T11:50:37;5.82;;;3.70;;
56339;SDS011;42243;42.644;23.366;2023-06-10T11:53:03;8.60;;;3.35;;
56339;SDS011;42243;42.644;23.366;2023-06-10T11:55:41;6.80;;;3.55;;
56339;SDS011;42243;42.644;23.366;2023-06-10T11:58:12;4.97;;;3.30;;
56339;SDS011;42243;42.644;23.366;2023-06-10T12:00:48;5.18;;;2.97;;
56339;SDS011;42243;42.644;23.366;2023-06-10T12:03:15;5.38;;;3.05;;
56339;SDS011;42243;42.644;23.366;2023-06-10T12:05:53;5.45;;;3.60;;
56339;SDS011;42243;42.644;23.366;2023-06-10T12:08:21;3.80;;;3.10;;
56339;SDS011;42243;42.644;23.366;2023-06-10T12:10:47;6.72;;;3.28;;
56339;SDS011;42243;42.644;23.366;2023-06-10T12:13:12;6.00;;;3.03;;
56339;SDS011;42243;42.644;23.366;2023-06-10T12:15:37;6.95;;;3.72;;
56339;SDS011;42243;42.644;23.366;2023-06-10T12:18:03;5.25;;;3.90;;
56339;SDS011;42243;42.644;23.366;2023-06-10T12:20:29;5.85;;;2.95;;
56339;SDS011;42243;42.644;23.366;2023-06-10T12:23:00;6.20;;;3.08;;
56339;SDS011;42243;42.644;23.366;2023-06-10T12:25:33;4.47;;;3.60;;
56339;SDS011;42243;42.644;23.366;2023-06-10T12:27:58;5.00;;;2.92;;
56339;SDS011;42243;42.644;23.366;2023-06-10T12:30:25;4.75;;;3.47;;
56339;SDS011;42243;42.644;23.366;2023-06-10T12:32:51;4.32;;;2.90;;
56339;SDS011;42243;42.644;23.366;2023-06-10T12:35:18;4.43;;;3.15;;
56339;SDS011;42243;42.644;23.366;2023-06-10T12:38:04;10.05;;;3.40;;
56339;SDS011;42243;42.644;23.366;2023-06-10T12:40:38;5.38;;;3.10;;
56339;SDS011;42243;42.644;23.366;2023-06-10T12:43:05;4.68;;;2.95;;
56339;SDS011;42243;42.644;23.366;2023-06-10T12:45:32;6.88;;;3.70;;
56339;SDS011;42243;42.644;23.366;2023-06-10T12:48:06;7.72;;;3.70;;
56339;SDS011;42243;42.644;23.366;2023-06-10T12:50:43;9.23;;;3.30;;
56339;SDS011;42243;42.644;23.366;2023-06-10T12:53:09;5.43;;;2.95;;
56339;SDS011;42243;42.644;23.366;2023-06-10T12:55:36;5.35;;;3.20;;
56339;SDS011;42243;42.644;23.366;2023-06-10T12:58:02;5.10;;;3.00;;
56339;SDS011;42243;42.644;23.366;2023-06-10T13:00:28;6.00;;;3.08;;
56339;SDS011;42243;42.644;23.366;2023-06-10T13:03:01;4.65;;;2.85;;
56339;SDS011;42243;42.644;23.366;2023-06-10T13:05:27;5.50;;;2.95;;
56339;SDS011;42243;42.644;23.366;2023-06-10T13:07:52;6.47;;;3.03;;
56339;SDS011;42243;42.644;23.366;2023-06-10T13:10:18;5.72;;;3.20;;
56339;SDS011;42243;42.644;23.366;2023-06-10T13:12:43;6.32;;;3.10;;
56339;SDS011;42243;42.644;23.366;2023-06-10T13:15:09;4.75;;;3.00;;
56339;SDS011;42243;42.644;23.366;2023-06-10T13:17:36;3.92;;;2.88;;
56339;SDS011;42243;42.644;23.366;2023-06-10T13:20:02;4.80;;;3.10;;
56339;SDS011;42243;42.644;23.366;2023-06-10T13:22:30;4.60;;;3.20;;
56339;SDS011;42243;42.644;23.366;2023-06-10T13:24:58;8.00;;;3.20;;
56339;SDS011;42243;42.644;23.366;2023-06-10T13:27:28;5.25;;;2.85;;
56339;SDS011;42243;42.644;23.366;2023-06-10T13:29:53;7.03;;;3.28;;
56339;SDS011;42243;42.644;23.366;2023-06-10T13:32:19;6.93;;;3.33;;
56339;SDS011;42243;42.644;23.366;2023-06-10T13:34:44;5.30;;;3.30;;
56339;SDS011;42243;42.644;23.366;2023-06-10T13:37:10;8.82;;;3.38;;
56339;SDS011;42243;42.644;23.366;2023-06-10T13:39:37;5.50;;;3.30;;
56339;SDS011;42243;42.644;23.366;2023-06-10T13:42:03;9.40;;;3.67;;
56339;SDS011;42243;42.644;23.366;2023-06-10T13:44:28;9.77;;;3.65;;
56339;SDS011;42243;42.644;23.366;2023-06-10T13:46:58;9.15;;;3.60;;
56339;SDS011;42243;42.644;23.366;2023-06-10T13:49:24;3.78;;;3.30;;
56339;SDS011;42243;42.644;23.366;2023-06-10T13:51:49;3.50;;;3.20;;
56339;SDS011;42243;42.644;23.366;2023-06-10T13:54:14;6.00;;;3.90;;
56339;SDS011;42243;42.644;23.366;2023-06-10T13:56:40;6.72;;;3.50;;
56339;SDS011;42243;42.644;23.366;2023-06-10T13:59:06;6.07;;;3.50;;
56339;SDS011;42243;42.644;23.366;2023-06-10T14:01:31;9.80;;;4.00;;
56339;SDS011;42243;42.644;23.366;2023-06-10T14:03:57;7.00;;;3.60;;
56339;SDS011;42243;42.644;23.366;2023-06-10T14:06:22;9.65;;;3.80;;
56339;SDS011;42243;42.644;23.366;2023-06-10T14:08:48;3.80;;;3.45;;
56339;SDS011;42243;42.644;23.366;2023-06-10T14:11:13;4.18;;;3.67;;
56339;SDS011;42243;42.644;23.366;2023-06-10T14:13:40;7.10;;;3.58;;
56339;SDS011;42243;42.644;23.366;2023-06-10T14:16:05;5.10;;;3.50;;
56339;SDS011;42243;42.644;23.366;2023-06-10T14:18:31;5.90;;;3.30;;
56339;SDS011;42243;42.644;23.366;2023-06-10T14:20:57;6.38;;;3.55;;
56339;SDS011;42243;42.644;23.366;2023-06-10T14:23:22;4.22;;;3.20;;
56339;SDS011;42243;42.644;23.366;2023-06-10T14:25:49;4.45;;;3.35;;
56339;SDS011;42243;42.644;23.366;2023-06-10T14:28:15;5.35;;;3.40;;
56339;SDS011;42243;42.644;23.366;2023-06-10T14:30:40;5.82;;;3.28;;
56339;SDS011;42243;42.644;23.366;2023-06-10T14:33:05;10.93;;;3.65;;
56339;SDS011;42243;42.644;23.366;2023-06-10T14:35:31;4.15;;;3.50;;
56339;SDS011;42243;42.644;23.366;2023-06-10T14:37:56;5.18;;;3.70;;
56339;SDS011;42243;42.644;23.366;2023-06-10T14:40:22;8.25;;;4.18;;